createdAt,value
2017-08-29T00:00:50.679Z,17.00
2017-08-29T00:03:20.714Z,17.00
2017-08-29T00:05:50.188Z,17.00
2017-08-29T00:08:20.058Z,17.00
2017-08-29T00:10:50.189Z,16.90
2017-08-29T00:13:19.584Z,16.90
2017-08-29T00:15:48.831Z,16.90
2017-08-29T00:18:18.119Z,16.80
2017-08-29T00:20:47.542Z,16.80
2017-08-29T00:23:16.860Z,16.80
2017-08-29T00:25:46.187Z,16.80
2017-08-29T00:28:15.417Z,16.70
2017-08-29T00:30:44.691Z,16.70
2017-08-29T00:33:13.933Z,16.70
2017-08-29T00:35:43.187Z,16.70
2017-08-29T00:38:12.479Z,16.60
2017-08-29T00:40:41.742Z,16.70
2017-08-29T00:43:11.023Z,16.60
2017-08-29T00:45:40.477Z,16.70
2017-08-29T00:48:09.726Z,16.70
2017-08-29T00:50:38.972Z,16.70
2017-08-29T00:53:08.452Z,16.60
2017-08-29T00:55:38.225Z,16.60
2017-08-29T00:58:07.481Z,16.60
2017-08-29T01:00:36.746Z,16.50
2017-08-29T01:03:06.054Z,16.50
2017-08-29T01:05:35.317Z,16.40
2017-08-29T01:08:04.615Z,16.50
2017-08-29T01:10:33.889Z,16.40
2017-08-29T01:13:03.146Z,16.40
2017-08-29T01:15:32.582Z,16.40
2017-08-29T01:18:01.906Z,16.30
2017-08-29T01:20:31.185Z,16.30
2017-08-29T01:23:00.478Z,16.30
2017-08-29T01:25:29.808Z,16.30
2017-08-29T01:27:59.073Z,16.40
2017-08-29T01:30:28.334Z,16.30
2017-08-29T01:32:57.589Z,16.30
2017-08-29T01:35:27.026Z,16.30
2017-08-29T01:37:56.305Z,16.30
2017-08-29T01:40:25.600Z,16.20
2017-08-29T01:42:55.499Z,16.20
2017-08-29T01:45:25.727Z,16.20
2017-08-29T01:47:55.147Z,16.20
2017-08-29T01:50:24.456Z,16.20
2017-08-29T01:52:53.868Z,16.10
2017-08-29T01:55:23.135Z,16.10
2017-08-29T01:57:52.517Z,16.10
2017-08-29T02:00:22.549Z,16.10
2017-08-29T02:02:51.978Z,16.10
2017-08-29T02:05:21.386Z,16.10
2017-08-29T02:07:50.675Z,16.10
2017-08-29T02:10:19.965Z,16.10
2017-08-29T02:12:49.222Z,16.10
2017-08-29T02:15:18.485Z,16.10
2017-08-29T02:17:47.818Z,16.10
2017-08-29T02:20:17.304Z,16.10
2017-08-29T02:22:46.583Z,16.10
2017-08-29T02:25:15.838Z,16.10
2017-08-29T02:27:45.222Z,16.00
2017-08-29T02:30:14.470Z,16.00
2017-08-29T02:32:43.840Z,16.00
2017-08-29T02:35:13.085Z,16.00
2017-08-29T02:37:42.343Z,16.00
2017-08-29T02:40:11.693Z,16.00
2017-08-29T02:42:40.942Z,16.00
2017-08-29T02:45:10.309Z,16.00
2017-08-29T02:47:39.843Z,15.90
2017-08-29T02:50:09.106Z,16.00
2017-08-29T02:52:38.375Z,15.90
2017-08-29T02:55:07.741Z,15.90
2017-08-29T02:57:37.218Z,16.00
2017-08-29T03:00:06.461Z,16.00
2017-08-29T03:02:35.830Z,15.90
2017-08-29T03:05:05.078Z,15.80
2017-08-29T03:07:34.444Z,15.80
2017-08-29T03:10:03.735Z,15.90
2017-08-29T03:12:33.003Z,15.90
2017-08-29T03:15:02.333Z,15.80
2017-08-29T03:17:31.589Z,15.80
2017-08-29T03:20:00.918Z,15.80
2017-08-29T03:22:30.266Z,15.80
2017-08-29T03:24:59.513Z,15.90
2017-08-29T03:27:29.153Z,15.80
2017-08-29T03:29:58.563Z,15.80
2017-08-29T03:32:27.814Z,15.80
2017-08-29T03:34:57.183Z,15.70
2017-08-29T03:37:26.425Z,15.70
2017-08-29T03:39:55.790Z,15.70
2017-08-29T03:42:25.057Z,15.70
2017-08-29T03:44:54.305Z,15.70
2017-08-29T03:47:23.558Z,15.70
2017-08-29T03:49:52.926Z,15.70
2017-08-29T03:52:22.171Z,15.60
2017-08-29T03:54:51.434Z,15.60
2017-08-29T03:57:20.703Z,15.60
2017-08-29T03:59:50.010Z,15.60
2017-08-29T04:02:19.262Z,15.60
2017-08-29T04:04:48.538Z,15.60
2017-08-29T04:07:17.810Z,15.60
2017-08-29T04:09:47.449Z,15.50
2017-08-29T04:12:16.888Z,15.50
2017-08-29T04:14:46.133Z,15.50
2017-08-29T04:17:15.494Z,15.50
2017-08-29T04:19:44.795Z,15.50
2017-08-29T04:22:14.065Z,15.50
2017-08-29T04:24:43.402Z,15.40
2017-08-29T04:27:12.651Z,15.50
2017-08-29T04:29:41.944Z,15.50
2017-08-29T04:32:11.161Z,15.50
2017-08-29T04:34:40.436Z,15.50
2017-08-29T04:37:09.698Z,15.50
2017-08-29T04:39:38.974Z,15.50
2017-08-29T04:42:08.221Z,15.50
2017-08-29T04:44:37.469Z,15.50
2017-08-29T04:47:07.593Z,15.50
2017-08-29T04:49:36.842Z,15.50
2017-08-29T04:52:06.106Z,15.50
2017-08-29T04:54:35.350Z,15.50
2017-08-29T04:57:04.610Z,15.60
2017-08-29T04:59:33.881Z,15.60
2017-08-29T05:02:03.129Z,15.70
2017-08-29T05:04:32.390Z,15.70
2017-08-29T05:07:01.689Z,15.70
2017-08-29T05:09:31.035Z,15.80
2017-08-29T05:12:00.306Z,15.80
2017-08-29T05:14:29.585Z,15.90
2017-08-29T05:16:58.830Z,15.90
2017-08-29T05:19:28.403Z,15.90
2017-08-29T05:21:57.753Z,16.00
2017-08-29T05:24:27.001Z,16.00
2017-08-29T05:26:56.267Z,16.10
2017-08-29T05:29:25.629Z,16.20
2017-08-29T05:31:54.931Z,16.30
2017-08-29T05:34:24.189Z,16.30
2017-08-29T05:36:53.450Z,16.40
2017-08-29T05:39:22.730Z,16.50
2017-08-29T05:41:51.969Z,16.60
2017-08-29T05:44:21.271Z,16.70
2017-08-29T05:46:50.517Z,16.70
2017-08-29T05:49:19.774Z,16.80
2017-08-29T05:51:49.029Z,16.90
2017-08-29T05:54:18.322Z,17.00
2017-08-29T05:56:47.598Z,17.00
2017-08-29T05:59:16.848Z,17.10
2017-08-29T06:01:46.085Z,17.20
2017-08-29T06:04:15.553Z,17.30
2017-08-29T06:06:44.841Z,17.40
2017-08-29T06:09:14.207Z,17.40
2017-08-29T06:11:43.462Z,17.70
2017-08-29T06:14:12.769Z,19.20
2017-08-29T06:16:42.010Z,21.60
2017-08-29T06:19:11.268Z,24.20
2017-08-29T06:21:40.554Z,26.50
2017-08-29T06:24:09.791Z,28.50
2017-08-29T06:26:39.038Z,30.40
2017-08-29T06:29:08.478Z,31.80
2017-08-29T06:31:37.756Z,33.10
2017-08-29T06:34:06.996Z,34.10
2017-08-29T06:36:36.485Z,35.30
2017-08-29T06:39:05.714Z,36.20
2017-08-29T06:41:34.975Z,36.70
2017-08-29T06:44:04.215Z,37.10
2017-08-29T06:46:33.598Z,37.80
2017-08-29T06:49:02.849Z,38.10
2017-08-29T06:51:32.110Z,37.80
2017-08-29T06:54:01.991Z,37.50
2017-08-29T06:56:31.245Z,37.70
2017-08-29T06:59:00.548Z,37.90
2017-08-29T07:01:29.794Z,37.80
2017-08-29T07:03:59.151Z,37.30
2017-08-29T07:06:28.421Z,37.90
2017-08-29T07:08:57.898Z,38.00
2017-08-29T07:11:27.459Z,37.80
2017-08-29T07:13:56.783Z,38.50
2017-08-29T07:16:26.058Z,38.10
2017-08-29T07:18:55.318Z,38.80
2017-08-29T07:21:24.769Z,39.50
2017-08-29T07:23:54.129Z,40.50
2017-08-29T07:26:23.438Z,40.60
2017-08-29T07:28:52.790Z,40.90
2017-08-29T07:31:22.077Z,41.60
2017-08-29T07:33:51.538Z,42.20
2017-08-29T07:36:20.814Z,41.80
2017-08-29T07:38:50.142Z,42.40
2017-08-29T07:41:19.594Z,42.50
2017-08-29T07:43:48.879Z,41.60
2017-08-29T07:46:18.249Z,41.30
2017-08-29T07:48:47.520Z,41.50
2017-08-29T07:51:16.835Z,41.60
2017-08-29T07:53:46.074Z,41.30
2017-08-29T07:56:15.337Z,41.60
2017-08-29T07:58:44.570Z,41.70
2017-08-29T08:01:13.853Z,41.60
2017-08-29T08:03:43.105Z,41.40
2017-08-29T08:06:12.365Z,41.50
2017-08-29T08:08:41.633Z,41.30
2017-08-29T08:11:10.898Z,41.80
2017-08-29T08:13:40.199Z,41.70
2017-08-29T08:16:09.477Z,41.90
2017-08-29T08:18:38.718Z,41.60
2017-08-29T08:21:07.954Z,41.70
2017-08-29T08:23:37.481Z,41.30
2017-08-29T08:26:06.741Z,41.70
2017-08-29T08:28:36.006Z,42.30
2017-08-29T08:31:05.286Z,42.80
2017-08-29T08:33:34.532Z,42.60
2017-08-29T08:36:03.798Z,42.80
2017-08-29T08:38:33.042Z,42.70
2017-08-29T08:41:02.380Z,43.00
2017-08-29T08:43:31.743Z,43.20
2017-08-29T08:46:01.018Z,43.50
2017-08-29T08:48:30.282Z,43.60
2017-08-29T08:50:59.530Z,43.80
2017-08-29T08:53:28.793Z,44.10
2017-08-29T08:55:58.049Z,43.90
2017-08-29T08:58:27.323Z,44.20
2017-08-29T09:00:56.581Z,44.30
2017-08-29T09:03:25.837Z,44.20
2017-08-29T09:05:55.126Z,43.20
2017-08-29T09:08:24.372Z,43.40
2017-08-29T09:10:53.835Z,43.40
2017-08-29T09:13:23.080Z,43.20
2017-08-29T09:15:52.351Z,43.10
2017-08-29T09:18:21.596Z,42.90
2017-08-29T09:20:50.866Z,43.30
2017-08-29T09:23:20.145Z,43.70
2017-08-29T09:25:49.382Z,44.10
2017-08-29T09:28:18.642Z,44.00
2017-08-29T09:30:47.950Z,43.90
2017-08-29T09:33:17.208Z,44.00
2017-08-29T09:35:46.480Z,42.90
2017-08-29T09:38:15.845Z,42.80
2017-08-29T09:40:45.731Z,43.20
2017-08-29T09:43:15.035Z,43.30
2017-08-29T09:45:44.422Z,43.50
2017-08-29T09:48:13.682Z,43.70
2017-08-29T09:50:43.142Z,43.90
2017-08-29T09:53:12.391Z,44.50
2017-08-29T09:55:42.255Z,44.50
2017-08-29T09:58:11.510Z,45.30
2017-08-29T10:00:40.782Z,45.10
2017-08-29T10:03:10.617Z,45.60
2017-08-29T10:05:39.898Z,45.80
2017-08-29T10:08:09.153Z,46.10
2017-08-29T10:10:38.439Z,45.50
2017-08-29T10:13:07.702Z,45.00
2017-08-29T10:15:36.947Z,44.80
2017-08-29T10:18:06.278Z,44.90
2017-08-29T10:20:35.568Z,44.70
2017-08-29T10:23:04.811Z,44.60
2017-08-29T10:25:34.942Z,44.60
2017-08-29T10:28:04.290Z,44.10
2017-08-29T10:30:33.636Z,43.70
2017-08-29T10:33:02.907Z,43.80
2017-08-29T10:35:33.033Z,44.00
2017-08-29T10:38:02.333Z,44.20
2017-08-29T10:40:31.598Z,43.00
2017-08-29T10:43:01.151Z,42.10
2017-08-29T10:45:30.658Z,42.00
2017-08-29T10:47:59.972Z,41.50
2017-08-29T10:50:29.222Z,42.00
2017-08-29T10:52:58.470Z,42.20
2017-08-29T10:55:27.748Z,42.00
2017-08-29T10:57:57.023Z,42.70
2017-08-29T11:00:26.258Z,42.60
2017-08-29T11:02:55.574Z,42.30
2017-08-29T11:05:25.057Z,41.80
2017-08-29T11:07:54.299Z,41.30
2017-08-29T11:10:23.560Z,41.50
2017-08-29T11:12:52.820Z,42.00
2017-08-29T11:15:22.109Z,41.50
2017-08-29T11:17:51.330Z,41.20
2017-08-29T11:20:20.597Z,41.10
2017-08-29T11:22:49.861Z,41.70
2017-08-29T11:25:19.134Z,41.50
2017-08-29T11:27:48.407Z,41.40
2017-08-29T11:30:17.693Z,41.40
2017-08-29T11:32:46.946Z,40.40
2017-08-29T11:35:16.213Z,40.10
2017-08-29T11:37:45.534Z,40.20
2017-08-29T11:40:14.809Z,40.10
2017-08-29T11:42:44.062Z,39.40
2017-08-29T11:45:13.375Z,37.90
2017-08-29T11:47:42.655Z,36.50
2017-08-29T11:50:12.669Z,35.10
2017-08-29T11:52:41.924Z,34.00
2017-08-29T11:55:11.618Z,33.00
2017-08-29T11:57:40.838Z,32.30
2017-08-29T12:00:10.117Z,31.80
2017-08-29T12:02:39.393Z,31.60
2017-08-29T12:05:08.632Z,31.30
2017-08-29T12:07:37.885Z,31.20
2017-08-29T12:10:07.168Z,30.80
2017-08-29T12:12:36.380Z,30.30
2017-08-29T12:15:05.634Z,30.20
2017-08-29T12:17:34.881Z,30.30
2017-08-29T12:20:04.153Z,30.50
2017-08-29T12:22:33.401Z,30.70
2017-08-29T12:25:02.683Z,30.80
2017-08-29T12:27:31.926Z,30.80
2017-08-29T12:30:01.311Z,30.60
2017-08-29T12:32:30.568Z,30.50
2017-08-29T12:34:59.824Z,30.50
2017-08-29T12:37:29.228Z,30.40
2017-08-29T12:39:58.478Z,30.40
2017-08-29T12:42:27.775Z,30.40
2017-08-29T12:44:57.004Z,30.60
2017-08-29T12:47:26.246Z,30.70
2017-08-29T12:49:55.511Z,30.80
2017-08-29T12:52:24.838Z,30.90
2017-08-29T12:54:54.085Z,30.90
2017-08-29T12:57:23.419Z,30.90
2017-08-29T12:59:52.718Z,30.90
2017-08-29T13:02:22.046Z,31.00
2017-08-29T13:04:51.310Z,31.20
2017-08-29T13:07:20.558Z,31.40
2017-08-29T13:09:50.243Z,31.50
2017-08-29T13:12:19.462Z,31.50
2017-08-29T13:14:48.748Z,31.70
2017-08-29T13:17:18.014Z,31.70
2017-08-29T13:19:47.298Z,31.70
2017-08-29T13:22:16.565Z,31.80
2017-08-29T13:24:45.807Z,31.80
2017-08-29T13:27:15.063Z,31.80
2017-08-29T13:29:44.309Z,31.80
2017-08-29T13:32:13.670Z,31.90
2017-08-29T13:34:42.926Z,31.80
2017-08-29T13:37:12.337Z,31.50
2017-08-29T13:39:41.955Z,31.40
2017-08-29T13:42:11.197Z,31.30
2017-08-29T13:44:40.478Z,31.20
2017-08-29T13:47:09.806Z,31.10
2017-08-29T13:49:39.677Z,30.90
2017-08-29T13:52:08.919Z,30.90
2017-08-29T13:54:38.180Z,31.00
2017-08-29T13:57:07.424Z,31.10
2017-08-29T13:59:36.687Z,31.00
2017-08-29T14:02:05.941Z,30.90
2017-08-29T14:04:35.379Z,30.80
2017-08-29T14:07:04.681Z,30.90
2017-08-29T14:09:33.917Z,31.00
2017-08-29T14:12:03.155Z,31.00
2017-08-29T14:14:32.425Z,30.90
2017-08-29T14:17:01.667Z,30.80
2017-08-29T14:19:30.933Z,30.90
2017-08-29T14:22:00.479Z,30.90
2017-08-29T14:24:29.721Z,31.00
2017-08-29T14:26:58.997Z,31.20
2017-08-29T14:29:28.243Z,31.10
2017-08-29T14:31:57.498Z,31.20
2017-08-29T14:34:26.830Z,31.10
2017-08-29T14:36:56.080Z,31.00
2017-08-29T14:39:25.408Z,31.10
2017-08-29T14:41:54.661Z,31.20
2017-08-29T14:44:24.668Z,31.20
2017-08-29T14:47:12.290Z,31.10
2017-08-29T14:49:41.581Z,31.20
2017-08-29T14:52:10.833Z,31.30
2017-08-29T14:54:40.069Z,31.40
2017-08-29T14:57:09.350Z,31.40
2017-08-29T14:59:38.591Z,31.20
2017-08-29T15:02:07.897Z,31.20
2017-08-29T15:04:37.135Z,31.40
2017-08-29T15:07:06.596Z,31.30
2017-08-29T15:09:35.829Z,31.10
2017-08-29T15:12:05.104Z,30.90
2017-08-29T15:14:34.512Z,30.90
2017-08-29T15:17:04.103Z,30.90
2017-08-29T15:19:33.366Z,30.90
2017-08-29T15:22:02.805Z,30.90
2017-08-29T15:24:32.078Z,30.90
2017-08-29T15:27:01.378Z,30.70
2017-08-29T15:29:31.015Z,30.60
2017-08-29T15:32:03.196Z,30.50
2017-08-29T15:34:34.473Z,30.40
2017-08-29T15:37:04.769Z,30.40
2017-08-29T15:39:34.109Z,30.50
2017-08-29T15:42:04.331Z,30.60
2017-08-29T15:44:34.291Z,30.60
2017-08-29T15:47:03.538Z,30.70
2017-08-29T15:49:32.935Z,30.70
2017-08-29T15:52:05.900Z,30.60
2017-08-29T15:54:36.208Z,30.50
2017-08-29T15:57:05.490Z,30.30
2017-08-29T15:59:34.734Z,30.10
2017-08-29T16:02:04.115Z,30.00
2017-08-29T16:04:34.088Z,29.80
2017-08-29T16:07:03.633Z,29.70
2017-08-29T16:09:33.011Z,29.40
2017-08-29T16:12:02.439Z,29.20
2017-08-29T16:14:31.702Z,29.00
2017-08-29T16:17:01.452Z,28.90
2017-08-29T16:19:31.678Z,28.70
2017-08-29T16:22:01.548Z,28.50
2017-08-29T16:24:31.878Z,28.20
2017-08-29T16:27:01.157Z,28.00
2017-08-29T16:29:30.509Z,27.90
2017-08-29T16:31:59.864Z,27.70
2017-08-29T16:34:29.126Z,27.50
2017-08-29T16:36:59.541Z,27.20
2017-08-29T16:39:28.806Z,27.00
2017-08-29T16:41:58.109Z,26.80
2017-08-29T16:44:27.363Z,26.60
2017-08-29T16:46:56.846Z,26.40
2017-08-29T16:49:26.095Z,26.10
2017-08-29T16:51:55.341Z,25.60
2017-08-29T16:54:24.613Z,25.30
2017-08-29T16:56:54.072Z,25.10
2017-08-29T16:59:23.348Z,24.90
2017-08-29T17:01:52.594Z,24.70
2017-08-29T17:04:21.883Z,24.50
2017-08-29T17:06:51.241Z,24.30
2017-08-29T17:09:20.563Z,24.20
2017-08-29T17:11:49.951Z,24.10
2017-08-29T17:14:19.224Z,24.00
2017-08-29T17:16:48.693Z,23.90
2017-08-29T17:19:18.001Z,23.80
2017-08-29T17:21:47.376Z,23.70
2017-08-29T17:24:16.607Z,23.60
2017-08-29T17:26:45.915Z,23.60
2017-08-29T17:29:15.198Z,23.60
2017-08-29T17:31:44.462Z,23.60
2017-08-29T17:34:13.709Z,23.40
2017-08-29T17:36:43.196Z,23.30
2017-08-29T17:39:12.618Z,23.20
2017-08-29T17:41:41.914Z,23.30
2017-08-29T17:44:11.240Z,23.30
2017-08-29T17:46:41.094Z,23.20
2017-08-29T17:49:10.415Z,23.20
2017-08-29T17:51:39.892Z,23.10
2017-08-29T17:54:09.203Z,23.10
2017-08-29T17:56:38.471Z,22.90
2017-08-29T17:59:07.707Z,22.90
2017-08-29T18:01:37.076Z,22.80
2017-08-29T18:04:06.358Z,22.60
2017-08-29T18:06:35.705Z,22.50
2017-08-29T18:09:04.972Z,22.50
2017-08-29T18:11:34.948Z,22.40
2017-08-29T18:14:04.219Z,22.30
2017-08-29T18:16:33.490Z,22.20
2017-08-29T18:19:02.772Z,22.10
2017-08-29T18:21:32.158Z,22.10
2017-08-29T18:24:01.461Z,22.00
2017-08-29T18:26:30.701Z,21.90
2017-08-29T18:28:59.967Z,21.90
2017-08-29T18:31:29.274Z,21.80
2017-08-29T18:33:58.599Z,21.70
2017-08-29T18:36:27.951Z,21.60
2017-08-29T18:38:57.207Z,21.50
2017-08-29T18:41:26.534Z,21.40
2017-08-29T18:43:55.824Z,21.30
2017-08-29T18:49:29.416Z,21.20
2017-08-29T18:51:58.676Z,21.20
2017-08-29T18:54:27.956Z,21.20
2017-08-29T18:56:57.297Z,21.10
2017-08-29T18:59:26.618Z,21.10
2017-08-29T19:01:55.916Z,21.00
2017-08-29T19:04:25.527Z,21.00
2017-08-29T19:06:54.808Z,20.90
2017-08-29T19:09:24.124Z,20.80
2017-08-29T19:11:53.417Z,20.80
2017-08-29T19:14:22.767Z,20.70
2017-08-29T19:16:52.118Z,20.70
2017-08-29T19:19:21.447Z,20.60
2017-08-29T19:21:50.711Z,20.60
2017-08-29T19:24:20.041Z,20.60
2017-08-29T19:26:49.392Z,20.50
2017-08-29T19:29:18.770Z,20.40
2017-08-29T19:31:48.051Z,20.40
2017-08-29T19:34:17.319Z,20.40
2017-08-29T19:36:46.611Z,20.30
2017-08-29T19:39:15.884Z,20.30
2017-08-29T19:41:45.252Z,20.20
2017-08-29T19:44:14.607Z,20.20
2017-08-29T19:46:43.890Z,20.20
2017-08-29T19:49:13.207Z,20.20
2017-08-29T19:51:42.478Z,20.20
2017-08-29T19:54:11.775Z,20.10
2017-08-29T19:56:41.034Z,20.00
2017-08-29T19:59:10.358Z,20.00
2017-08-29T20:01:39.716Z,20.00
2017-08-29T20:04:08.995Z,20.00
2017-08-29T20:06:38.279Z,19.90
2017-08-29T20:09:07.695Z,19.90
2017-08-29T20:11:37.054Z,19.90
2017-08-29T20:14:06.286Z,19.80
2017-08-29T20:16:35.558Z,19.80
2017-08-29T20:19:04.822Z,19.70
2017-08-29T20:21:34.323Z,19.60
2017-08-29T20:24:03.583Z,19.70
2017-08-29T20:26:32.955Z,19.60
2017-08-29T20:29:02.297Z,19.70
2017-08-29T20:31:31.674Z,19.70
2017-08-29T20:34:01.031Z,19.60
2017-08-29T20:36:30.409Z,19.50
2017-08-29T20:38:59.622Z,19.50
2017-08-29T20:41:29.086Z,19.50
2017-08-29T20:43:58.653Z,19.50
2017-08-29T20:46:27.936Z,19.50
2017-08-29T20:48:57.216Z,19.40
2017-08-29T20:51:26.502Z,19.40
2017-08-29T20:53:55.790Z,19.40
2017-08-29T20:56:25.062Z,19.40
2017-08-29T20:58:54.318Z,19.40
2017-08-29T21:01:23.578Z,19.40
2017-08-29T21:03:52.847Z,19.30
2017-08-29T21:06:22.132Z,19.30
2017-08-29T21:08:51.631Z,19.30
2017-08-29T21:11:24.914Z,19.30
2017-08-29T21:13:54.338Z,19.30
2017-08-29T21:16:23.937Z,19.30
2017-08-29T21:18:56.238Z,19.20
2017-08-29T21:21:25.499Z,19.20
2017-08-29T21:23:54.771Z,19.20
2017-08-29T21:26:24.051Z,19.20
2017-08-29T21:28:53.309Z,19.10
2017-08-29T21:31:22.735Z,19.10
2017-08-29T21:33:52.044Z,19.10
2017-08-29T21:36:21.435Z,19.10
2017-08-29T21:38:50.737Z,19.10
2017-08-29T21:41:24.850Z,19.00
2017-08-29T21:43:54.122Z,19.00
2017-08-29T21:46:23.375Z,19.00
2017-08-29T21:48:52.640Z,19.00
2017-08-29T21:51:21.949Z,19.00
2017-08-29T21:53:51.499Z,19.00
2017-08-29T21:56:20.779Z,19.00
2017-08-29T21:58:50.032Z,19.00
2017-08-29T22:01:19.347Z,19.00
2017-08-29T22:03:48.725Z,19.00
2017-08-29T22:06:18.091Z,19.00
2017-08-29T22:08:48.176Z,19.00
2017-08-29T22:11:17.451Z,19.00
2017-08-29T22:13:46.726Z,19.00
2017-08-29T22:16:16.024Z,19.00
2017-08-29T22:18:45.315Z,19.00
2017-08-29T22:21:15.164Z,18.90
2017-08-29T22:23:44.587Z,18.90
2017-08-29T22:26:13.866Z,18.90
2017-08-29T22:28:43.151Z,18.90
2017-08-29T22:31:12.422Z,18.90
2017-08-29T22:33:41.679Z,18.90
2017-08-29T22:36:11.827Z,18.80
2017-08-29T22:38:41.141Z,18.80
2017-08-29T22:41:10.433Z,18.80
2017-08-29T22:43:39.733Z,18.90
2017-08-29T22:46:08.986Z,18.80
2017-08-29T22:48:38.324Z,18.80
2017-08-29T22:51:07.541Z,18.80
2017-08-29T22:53:36.896Z,18.80
2017-08-29T22:56:06.338Z,18.70
2017-08-29T22:58:35.581Z,18.70
2017-08-29T23:01:05.069Z,18.70
2017-08-29T23:03:34.843Z,18.70
2017-08-29T23:06:04.200Z,18.70
2017-08-29T23:11:08.087Z,18.70
2017-08-29T23:13:37.396Z,18.70
2017-08-29T23:16:06.650Z,18.70
2017-08-29T23:18:35.911Z,18.70
2017-08-29T23:21:05.166Z,18.70
2017-08-29T23:23:34.465Z,18.60
2017-08-29T23:26:03.736Z,18.60
2017-08-29T23:28:32.998Z,18.60
2017-08-29T23:31:02.462Z,18.60
2017-08-29T23:33:31.739Z,18.60
2017-08-29T23:36:00.991Z,18.60
2017-08-29T23:38:30.284Z,18.60
2017-08-29T23:41:00.266Z,18.60
2017-08-29T23:43:30.237Z,18.50
2017-08-29T23:45:59.530Z,18.60
2017-08-29T23:48:28.778Z,18.60
2017-08-29T23:50:58.162Z,18.60
2017-08-29T23:53:27.457Z,18.60
2017-08-29T23:55:56.720Z,18.60
2017-08-29T23:58:25.985Z,18.50
